Terminal Aerodrome Forecast
Issued by NWS Grand Junction, CO

Home | Current Version | Previous Version | Text Only | Print | Product List | Glossary On
Versions: 1 2 3 4 5 6 7 8 9 10 11 12 13 14 15 16 17 18 19 20 21 22 23 24 25 26 27 28 29 30 31 32 33 34 35 36 37 38 39 40 41
000
FTUS45 KGJT 251741
TAFGJT
TAF
KGJT 251741Z 2518/2618 27010G15KT P6SM VCSH SCT030 OVC050
      TEMPO 2518/2519 6SM -RA BR BKN040 OVC060
     FM252000 26009KT P6SM VCTS SCT030 BKN070CB
      TEMPO 2520/2524 VRB15G30KT 5SM -TSRA SCT030 BKN040CB
     FM260200 12010KT 4SM -RA BR BKN035
     FM260800 13010KT P6SM VCSH OVC040=

USA.gov is the U.S. government's official web portal to all federal, state and local government web resources and services.